createdAt,value
2023-02-21T00:00:03.931Z,7.10
2023-02-21T00:02:52.885Z,6.90
2023-02-21T00:05:38.888Z,7.10
2023-02-21T00:08:24.470Z,7.10
2023-02-21T00:11:10.171Z,7.00
2023-02-21T00:13:56.658Z,7.10
2023-02-21T00:16:44.443Z,7.20
2023-02-21T00:19:30.061Z,7.00
2023-02-21T00:22:15.649Z,7.00
2023-02-21T00:25:01.144Z,7.20
2023-02-21T00:27:46.608Z,7.10
2023-02-21T00:30:34.249Z,7.10
2023-02-21T00:33:20.196Z,6.70
2023-02-21T00:36:06.093Z,6.90
2023-02-21T00:38:51.617Z,6.90
2023-02-21T00:41:40.394Z,6.90
2023-02-21T00:44:26.022Z,6.80
2023-02-21T00:47:11.960Z,6.60
2023-02-21T00:49:57.700Z,7.10
2023-02-21T00:52:43.346Z,6.70
2023-02-21T00:55:29.008Z,7.10
2023-02-21T00:58:17.323Z,7.10
2023-02-21T01:01:02.869Z,7.10
2023-02-21T01:03:48.512Z,7.10
2023-02-21T01:06:33.985Z,7.10
2023-02-21T01:09:19.474Z,7.10
2023-02-21T01:12:05.267Z,6.90
2023-02-21T01:14:50.914Z,7.10
2023-02-21T01:17:40.720Z,7.00
2023-02-21T01:20:26.643Z,6.80
2023-02-21T01:23:12.251Z,6.60
2023-02-21T01:25:57.865Z,6.70
2023-02-21T01:28:43.339Z,6.60
2023-02-21T01:31:28.783Z,6.70
2023-02-21T01:34:14.527Z,6.50
2023-02-21T01:37:01.039Z,6.40
2023-02-21T01:39:46.571Z,6.50
2023-02-21T01:42:32.159Z,6.40
2023-02-21T01:45:39.911Z,6.40
2023-02-21T01:48:27.716Z,6.30
2023-02-21T01:51:14.740Z,6.40
2023-02-21T01:54:01.019Z,6.40
2023-02-21T01:56:53.257Z,6.20
2023-02-21T01:59:42.041Z,6.10
2023-02-21T02:02:40.178Z,6.20
2023-02-21T02:05:28.677Z,6.50
2023-02-21T02:08:15.208Z,6.40
2023-02-21T02:11:01.843Z,6.10
2023-02-21T02:13:38.382Z,5.90
2023-02-21T02:16:41.129Z,6.00
2023-02-21T02:19:17.556Z,6.00
2023-02-21T02:22:17.366Z,5.90
2023-02-21T02:24:48.538Z,6.00
2023-02-21T02:27:30.988Z,5.90
2023-02-21T02:30:22.039Z,5.90
2023-02-21T02:33:34.150Z,5.90
2023-02-21T02:36:13.812Z,5.70
2023-02-21T02:38:56.324Z,5.90
2023-02-21T02:41:37.383Z,5.70
2023-02-21T02:44:14.983Z,5.60
2023-02-21T02:46:45.704Z,5.70
2023-02-21T02:49:23.583Z,5.90
2023-02-21T02:51:52.071Z,5.60
2023-02-21T02:54:19.440Z,5.60
2023-02-21T02:56:48.319Z,5.70
2023-02-21T02:59:26.436Z,5.80
2023-02-21T03:02:19.508Z,5.80
2023-02-21T03:05:08.448Z,5.80
2023-02-21T03:07:58.402Z,5.80
2023-02-21T03:10:46.261Z,5.80
2023-02-21T03:13:13.671Z,5.90
2023-02-21T03:15:50.424Z,5.60
2023-02-21T03:18:17.657Z,5.60
2023-02-21T03:20:47.131Z,5.70
2023-02-21T03:23:16.082Z,5.80
2023-02-21T03:25:45.775Z,5.50
2023-02-21T03:28:13.568Z,5.50
2023-02-21T03:30:43.742Z,5.50
2023-02-21T03:33:11.347Z,5.50
2023-02-21T03:35:38.548Z,5.30
2023-02-21T03:38:05.957Z,5.60
2023-02-21T03:40:34.542Z,5.50
2023-02-21T03:43:07.441Z,5.40
2023-02-21T03:45:35.459Z,5.60
2023-02-21T03:48:03.266Z,5.50
2023-02-21T03:50:30.378Z,5.50
2023-02-21T03:52:57.423Z,5.40
2023-02-21T03:55:25.151Z,5.30
2023-02-21T03:57:52.420Z,5.40
2023-02-21T04:00:19.412Z,5.30
2023-02-21T04:02:46.662Z,5.20
2023-02-21T04:05:16.884Z,5.20
2023-02-21T04:07:44.078Z,5.10
2023-02-21T04:10:11.065Z,5.20
2023-02-21T04:12:38.377Z,5.00
2023-02-21T04:15:11.616Z,5.20
2023-02-21T04:17:38.778Z,5.10
2023-02-21T04:20:06.478Z,4.90
2023-02-21T04:22:33.597Z,5.10
2023-02-21T04:25:00.802Z,5.20
2023-02-21T04:27:27.631Z,5.10
2023-02-21T04:29:54.789Z,4.90
2023-02-21T04:32:21.899Z,5.00
2023-02-21T04:34:49.377Z,5.10
2023-02-21T04:37:16.305Z,4.90
2023-02-21T04:39:43.234Z,5.10
2023-02-21T04:42:10.228Z,5.00
2023-02-21T04:44:38.486Z,4.90
2023-02-21T04:47:10.726Z,5.10
2023-02-21T04:49:37.940Z,4.80
2023-02-21T04:52:04.944Z,4.80
2023-02-21T04:54:41.175Z,5.00
2023-02-21T04:57:08.124Z,4.80
2023-02-21T04:59:35.055Z,4.90
2023-02-21T05:02:06.131Z,5.00
2023-02-21T05:04:33.224Z,5.10
2023-02-21T05:07:02.482Z,4.60
2023-02-21T05:09:36.212Z,5.00
2023-02-21T05:12:03.258Z,5.00
2023-02-21T05:14:33.108Z,5.10
2023-02-21T05:17:03.448Z,4.90
2023-02-21T05:19:30.662Z,4.50
2023-02-21T05:21:59.795Z,4.80
2023-02-21T05:24:28.628Z,4.80
2023-02-21T05:26:56.198Z,4.70
2023-02-21T05:29:23.615Z,4.70
2023-02-21T05:31:50.841Z,4.70
2023-02-21T05:34:19.809Z,4.50
2023-02-21T05:36:46.962Z,4.80
2023-02-21T05:39:14.028Z,4.80
2023-02-21T05:41:47.422Z,5.00
2023-02-21T05:44:15.146Z,4.70
2023-02-21T05:46:46.199Z,4.70
2023-02-21T05:49:13.641Z,4.90
2023-02-21T05:51:43.730Z,5.00
2023-02-21T05:54:15.454Z,4.90
2023-02-21T05:56:44.131Z,4.50
2023-02-21T05:59:16.613Z,4.70
2023-02-21T06:01:43.787Z,4.80
2023-02-21T06:04:11.116Z,4.80
2023-02-21T06:06:38.262Z,4.60
2023-02-21T06:09:06.215Z,4.80
2023-02-21T06:11:35.276Z,4.80
2023-02-21T06:14:03.775Z,4.80
2023-02-21T06:16:40.771Z,4.70
2023-02-21T06:19:11.295Z,4.80
2023-02-21T06:21:38.876Z,4.70
2023-02-21T06:24:06.154Z,4.50
2023-02-21T06:26:33.363Z,4.70
2023-02-21T06:29:03.397Z,4.70
2023-02-21T06:31:33.527Z,4.50
2023-02-21T06:34:03.890Z,4.90
2023-02-21T06:36:32.531Z,5.20
2023-02-21T06:39:00.005Z,5.40
2023-02-21T06:41:30.202Z,5.60
2023-02-21T06:43:58.695Z,6.00
2023-02-21T06:46:29.833Z,6.00
2023-02-21T06:48:57.776Z,6.30
2023-02-21T06:51:29.951Z,6.50
2023-02-21T06:54:06.748Z,6.30
2023-02-21T06:56:34.293Z,6.80
2023-02-21T06:59:02.043Z,6.40
2023-02-21T07:01:31.974Z,6.90
2023-02-21T07:03:59.519Z,6.60
2023-02-21T07:06:29.577Z,6.70
2023-02-21T07:08:57.176Z,6.90
2023-02-21T07:11:24.411Z,6.80
2023-02-21T07:13:54.262Z,6.60
2023-02-21T07:16:24.505Z,7.10
2023-02-21T07:18:52.750Z,7.20
2023-02-21T07:21:20.917Z,7.00
2023-02-21T07:23:50.471Z,7.00
2023-02-21T07:26:22.032Z,7.10
2023-02-21T07:28:50.086Z,7.20
2023-02-21T07:31:21.484Z,7.00
2023-02-21T07:33:51.141Z,7.00
2023-02-21T07:36:25.569Z,7.00
2023-02-21T07:38:57.590Z,6.80
2023-02-21T07:41:27.079Z,6.60
2023-02-21T07:43:54.447Z,6.20
2023-02-21T07:46:26.047Z,6.20
2023-02-21T07:49:03.094Z,6.00
2023-02-21T07:51:31.142Z,6.00
2023-02-21T07:54:00.446Z,5.90
2023-02-21T07:56:27.497Z,5.90
2023-02-21T07:58:54.914Z,5.90
2023-02-21T08:01:25.007Z,5.90
2023-02-21T08:03:52.688Z,5.80
2023-02-21T08:06:19.897Z,5.90
2023-02-21T08:08:46.885Z,5.90
2023-02-21T08:11:14.259Z,6.00
2023-02-21T08:13:41.563Z,5.80
2023-02-21T08:16:08.628Z,5.80
2023-02-21T08:18:35.720Z,6.00
2023-02-21T08:21:02.767Z,5.90
2023-02-21T08:23:30.289Z,6.00
2023-02-21T08:25:57.756Z,6.00
2023-02-21T08:28:28.759Z,6.10
2023-02-21T08:30:58.966Z,6.20
2023-02-21T08:33:26.302Z,6.20
2023-02-21T08:35:53.370Z,6.20
2023-02-21T08:38:20.745Z,6.30
2023-02-21T08:40:48.293Z,6.40
2023-02-21T08:43:21.186Z,6.40
2023-02-21T08:45:52.624Z,6.60
2023-02-21T08:48:22.430Z,7.00
2023-02-21T08:50:50.342Z,6.80
2023-02-21T08:53:17.252Z,6.80
2023-02-21T08:55:44.706Z,7.10
2023-02-21T08:58:13.247Z,7.30
2023-02-21T09:00:40.174Z,7.00
2023-02-21T09:03:08.698Z,7.50
2023-02-21T09:05:36.092Z,7.60
2023-02-21T09:08:03.877Z,7.70
2023-02-21T09:10:35.771Z,7.70
2023-02-21T09:13:04.195Z,7.80
2023-02-21T09:15:32.213Z,7.90
2023-02-21T09:18:11.463Z,7.90
2023-02-21T09:20:42.305Z,8.30
2023-02-21T09:23:10.116Z,8.30
2023-02-21T09:25:37.810Z,8.30
2023-02-21T09:28:05.282Z,8.20
2023-02-21T09:30:32.417Z,8.30
2023-02-21T09:32:59.849Z,8.40
2023-02-21T09:35:27.004Z,8.80
2023-02-21T09:38:01.156Z,8.80
2023-02-21T09:40:37.195Z,8.80
2023-02-21T09:43:06.505Z,8.90
2023-02-21T09:45:41.882Z,9.00
2023-02-21T09:48:16.480Z,9.20
2023-02-21T09:50:54.597Z,8.90
2023-02-21T09:53:34.858Z,9.10
2023-02-21T09:56:29.140Z,9.30
2023-02-21T09:59:00.416Z,9.50
2023-02-21T10:01:52.550Z,9.60
2023-02-21T10:04:33.909Z,9.70
2023-02-21T10:07:14.875Z,9.60
2023-02-21T10:10:00.854Z,9.70
2023-02-21T10:12:51.613Z,9.90
2023-02-21T10:15:21.237Z,10.00
2023-02-21T10:18:08.687Z,10.00
2023-02-21T10:20:43.526Z,10.10
2023-02-21T10:23:37.994Z,10.30
2023-02-21T10:26:13.799Z,10.40
2023-02-21T10:28:41.160Z,10.40
2023-02-21T10:31:27.740Z,10.70
2023-02-21T10:33:55.256Z,10.80
2023-02-21T10:36:26.092Z,11.00
2023-02-21T10:39:09.503Z,11.00
2023-02-21T10:41:45.802Z,11.20
2023-02-21T10:44:27.200Z,11.20
2023-02-21T10:47:20.050Z,11.40
2023-02-21T10:49:55.399Z,11.60
2023-02-21T10:52:22.572Z,11.70
2023-02-21T10:55:19.983Z,11.80
2023-02-21T10:57:59.822Z,11.70
2023-02-21T11:00:40.739Z,11.80
2023-02-21T11:03:27.832Z,12.20
2023-02-21T11:06:00.247Z,12.30
2023-02-21T11:08:45.335Z,12.20
2023-02-21T11:11:13.291Z,12.40
2023-02-21T11:13:41.105Z,12.60
2023-02-21T11:16:20.041Z,12.70
2023-02-21T11:19:04.942Z,12.60
2023-02-21T11:21:33.279Z,13.00
2023-02-21T11:24:06.704Z,13.10
2023-02-21T11:26:55.811Z,13.30
2023-02-21T11:29:27.405Z,13.20
2023-02-21T11:31:55.594Z,13.70
2023-02-21T11:34:29.903Z,13.60
2023-02-21T11:37:04.254Z,14.10
2023-02-21T11:39:35.257Z,14.00
2023-02-21T11:42:05.193Z,14.10
2023-02-21T11:44:40.973Z,14.20
2023-02-21T11:47:35.545Z,14.20
2023-02-21T11:50:11.857Z,14.30
2023-02-21T11:53:04.811Z,14.40
2023-02-21T11:55:32.048Z,14.60
2023-02-21T11:58:22.910Z,14.80
2023-02-21T12:01:15.526Z,15.00
2023-02-21T12:03:50.260Z,15.40
2023-02-21T12:06:39.119Z,15.60
2023-02-21T12:09:35.184Z,15.60
2023-02-21T12:12:27.208Z,15.60
2023-02-21T12:15:22.020Z,15.70
2023-02-21T12:18:08.049Z,16.10
2023-02-21T12:21:14.354Z,16.10
2023-02-21T12:24:22.833Z,16.20
2023-02-21T12:27:12.618Z,16.30
2023-02-21T12:30:27.133Z,16.90
2023-02-21T12:33:16.741Z,16.80
2023-02-21T12:36:14.297Z,17.00
2023-02-21T12:39:12.656Z,17.00
2023-02-21T12:41:54.604Z,17.30
2023-02-21T12:44:54.293Z,17.50
2023-02-21T12:47:45.348Z,17.60
2023-02-21T12:50:22.213Z,17.50
2023-02-21T12:53:05.732Z,17.80
2023-02-21T12:56:01.190Z,18.00
2023-02-21T12:58:43.277Z,18.00
2023-02-21T13:01:21.488Z,18.50
2023-02-21T13:04:11.544Z,18.80
2023-02-21T13:06:59.487Z,18.90
2023-02-21T13:09:49.678Z,19.10
2023-02-21T13:12:23.583Z,19.30
2023-02-21T13:14:59.423Z,19.30
2023-02-21T13:17:27.973Z,19.40
2023-02-21T13:20:10.045Z,19.60
2023-02-21T13:23:36.226Z,19.60
2023-02-21T13:26:44.243Z,20.00
2023-02-21T13:29:39.085Z,20.30
2023-02-21T13:32:23.374Z,20.50
2023-02-21T13:35:09.072Z,20.70
2023-02-21T13:37:59.641Z,21.00
2023-02-21T13:41:02.164Z,21.20
2023-02-21T13:43:53.401Z,21.30
2023-02-21T13:46:36.881Z,21.40
2023-02-21T13:49:46.027Z,21.60
2023-02-21T13:52:24.906Z,21.70
2023-02-21T13:55:22.831Z,21.80
2023-02-21T13:58:00.577Z,21.80
2023-02-21T14:00:42.237Z,21.90
2023-02-21T14:03:19.843Z,21.90
2023-02-21T14:06:04.621Z,22.00
2023-02-21T14:08:48.348Z,22.10
2023-02-21T14:11:25.765Z,22.20
2023-02-21T14:14:24.205Z,22.20
2023-02-21T14:17:04.383Z,22.20
2023-02-21T14:19:57.479Z,22.40
2023-02-21T14:22:39.122Z,22.50
2023-02-21T14:25:25.130Z,22.60
2023-02-21T14:28:01.362Z,22.70
2023-02-21T14:30:37.993Z,23.10
2023-02-21T14:33:18.368Z,23.40
2023-02-21T14:35:58.677Z,23.90
2023-02-21T14:38:29.710Z,24.30
2023-02-21T14:41:14.766Z,24.70
2023-02-21T14:44:46.802Z,25.20
2023-02-21T14:47:30.662Z,25.60
2023-02-21T14:50:13.371Z,26.00
2023-02-21T14:52:43.444Z,26.20
2023-02-21T14:55:25.516Z,26.40
2023-02-21T14:58:21.545Z,26.60
2023-02-21T15:01:06.408Z,26.90
2023-02-21T15:04:09.241Z,27.30
2023-02-21T15:06:47.856Z,27.60
2023-02-21T15:09:26.231Z,27.70
2023-02-21T15:12:09.462Z,28.00
2023-02-21T15:14:48.793Z,28.30
2023-02-21T15:17:26.759Z,28.90
2023-02-21T15:20:17.250Z,29.40
2023-02-21T15:22:55.155Z,29.90
2023-02-21T15:25:28.827Z,30.10
2023-02-21T15:28:04.387Z,30.30
2023-02-21T15:30:58.829Z,30.40
2023-02-21T15:33:36.837Z,30.40
2023-02-21T15:36:11.161Z,30.20
2023-02-21T15:38:54.234Z,29.90
2023-02-21T15:41:35.391Z,29.10
2023-02-21T15:44:46.856Z,28.00
2023-02-21T15:47:21.770Z,26.90
2023-02-21T15:50:14.660Z,25.80
2023-02-21T15:53:12.123Z,25.00
2023-02-21T15:55:40.027Z,24.30
2023-02-21T15:58:10.552Z,23.50
2023-02-21T16:00:42.829Z,22.80
2023-02-21T16:03:29.028Z,22.10
2023-02-21T16:06:08.866Z,21.30
2023-02-21T16:08:39.107Z,20.60
2023-02-21T16:11:09.606Z,20.10
2023-02-21T16:13:40.885Z,19.60
2023-02-21T16:16:10.774Z,19.10
2023-02-21T16:18:38.155Z,18.70
2023-02-21T16:21:21.726Z,18.50
2023-02-21T16:24:26.017Z,18.00
2023-02-21T16:27:21.977Z,18.00
2023-02-21T16:29:54.692Z,17.50
2023-02-21T16:32:21.844Z,17.40
2023-02-21T16:34:55.012Z,17.20
2023-02-21T16:37:26.528Z,17.00
2023-02-21T16:39:56.112Z,16.90
2023-02-21T16:42:23.254Z,16.50
2023-02-21T16:44:53.583Z,16.30
2023-02-21T16:47:23.984Z,16.40
2023-02-21T16:49:52.384Z,15.90
2023-02-21T16:52:19.491Z,16.00
2023-02-21T16:54:46.784Z,15.70
2023-02-21T16:57:16.395Z,15.20
2023-02-21T16:59:43.611Z,15.00
2023-02-21T17:02:17.658Z,14.60
2023-02-21T17:04:45.036Z,14.40
2023-02-21T17:07:12.262Z,13.70
2023-02-21T17:09:42.077Z,13.50
2023-02-21T17:12:12.147Z,13.20
2023-02-21T17:14:42.624Z,13.00
2023-02-21T17:17:09.678Z,12.70
2023-02-21T17:19:37.427Z,12.70
2023-02-21T17:22:05.487Z,12.70
2023-02-21T17:24:34.964Z,12.50
2023-02-21T17:27:02.151Z,12.50
2023-02-21T17:29:29.418Z,12.20
2023-02-21T17:31:56.916Z,12.10
2023-02-21T17:34:23.999Z,12.00
2023-02-21T17:36:52.163Z,11.70
2023-02-21T17:39:20.759Z,11.50
2023-02-21T17:41:52.115Z,11.50
2023-02-21T17:44:19.821Z,11.50
2023-02-21T17:46:48.800Z,11.30
2023-02-21T17:49:21.943Z,11.50
2023-02-21T17:51:49.642Z,11.10
2023-02-21T17:54:22.215Z,10.80
2023-02-21T17:56:49.704Z,10.80
2023-02-21T17:59:17.286Z,10.80
2023-02-21T18:01:44.455Z,10.90
2023-02-21T18:04:13.807Z,10.60
2023-02-21T18:06:42.275Z,10.70
2023-02-21T18:09:11.218Z,10.50
2023-02-21T18:11:38.605Z,10.70
2023-02-21T18:14:05.926Z,10.60
2023-02-21T18:16:33.333Z,10.80
2023-02-21T18:19:03.613Z,10.80
2023-02-21T18:21:31.033Z,10.70
2023-02-21T18:24:00.311Z,10.50
2023-02-21T18:26:27.381Z,10.50
2023-02-21T18:28:54.466Z,10.70
2023-02-21T18:31:21.653Z,10.70
2023-02-21T18:33:49.477Z,10.50
2023-02-21T18:36:16.975Z,10.50
2023-02-21T18:38:44.047Z,10.20
2023-02-21T18:41:22.836Z,10.30
2023-02-21T18:43:51.254Z,10.40
2023-02-21T18:46:20.413Z,10.30
2023-02-21T18:48:50.111Z,10.00
2023-02-21T18:51:19.995Z,9.90
2023-02-21T18:53:48.962Z,10.20
2023-02-21T18:56:21.798Z,10.30
2023-02-21T18:58:52.325Z,10.10
2023-02-21T19:01:20.857Z,9.90
2023-02-21T19:03:51.215Z,10.00
2023-02-21T19:06:19.840Z,9.80
2023-02-21T19:08:50.454Z,10.00
2023-02-21T19:11:21.553Z,9.90
2023-02-21T19:13:50.513Z,9.90
2023-02-21T19:16:19.900Z,9.80
2023-02-21T19:18:47.508Z,9.80
2023-02-21T19:21:15.170Z,9.80
2023-02-21T19:23:43.237Z,9.80
2023-02-21T19:26:10.852Z,9.50
2023-02-21T19:28:40.346Z,9.60
2023-02-21T19:31:10.584Z,9.40
2023-02-21T19:33:38.382Z,9.40
2023-02-21T19:36:08.857Z,9.40
2023-02-21T19:38:36.456Z,9.40
2023-02-21T19:41:07.710Z,9.30
2023-02-21T19:43:36.034Z,9.30
2023-02-21T19:46:03.498Z,9.30
2023-02-21T19:48:30.574Z,9.30
2023-02-21T19:50:57.977Z,9.30
2023-02-21T19:53:25.444Z,9.30
2023-02-21T19:55:52.797Z,9.10
2023-02-21T19:58:19.957Z,9.20
2023-02-21T20:00:47.296Z,9.20
2023-02-21T20:03:14.688Z,9.30
2023-02-21T20:05:41.642Z,9.20
2023-02-21T20:08:09.034Z,9.30
2023-02-21T20:10:36.304Z,9.20
2023-02-21T20:13:06.757Z,9.00
2023-02-21T20:15:35.133Z,9.20
2023-02-21T20:18:05.089Z,9.10
2023-02-21T20:20:32.136Z,8.90
2023-02-21T20:23:02.274Z,8.90
2023-02-21T20:25:29.572Z,8.70
2023-02-21T20:27:56.957Z,8.90
2023-02-21T20:30:25.031Z,8.90
2023-02-21T20:32:53.184Z,8.90
2023-02-21T20:35:20.397Z,8.70
2023-02-21T20:37:47.556Z,8.70
2023-02-21T20:40:16.460Z,8.70
2023-02-21T20:42:43.745Z,8.50
2023-02-21T20:45:11.504Z,8.60
2023-02-21T20:47:39.329Z,8.90
2023-02-21T20:50:07.627Z,8.80
2023-02-21T20:52:37.913Z,8.90
2023-02-21T20:55:09.704Z,8.90
2023-02-21T20:57:38.004Z,8.60
2023-02-21T21:00:09.304Z,8.80
2023-02-21T21:02:41.029Z,8.50
2023-02-21T21:05:13.961Z,8.80
2023-02-21T21:07:41.915Z,8.80
2023-02-21T21:10:14.531Z,8.50
2023-02-21T21:12:43.024Z,8.60
2023-02-21T21:15:10.592Z,8.70
2023-02-21T21:17:42.490Z,8.60
2023-02-21T21:20:14.421Z,8.40
2023-02-21T21:22:42.310Z,8.40
2023-02-21T21:25:10.093Z,8.30
2023-02-21T21:27:37.587Z,8.50
2023-02-21T21:30:07.500Z,8.30
2023-02-21T21:32:35.082Z,8.30
2023-02-21T21:35:06.949Z,8.30
2023-02-21T21:37:36.247Z,8.10
2023-02-21T21:40:36.451Z,8.00
2023-02-21T21:43:07.711Z,8.20
2023-02-21T21:45:44.350Z,8.30
2023-02-21T21:48:14.857Z,8.30
2023-02-21T21:50:42.506Z,8.30
2023-02-21T21:53:10.264Z,8.30
2023-02-21T21:55:38.665Z,7.90
2023-02-21T21:58:14.181Z,8.20
2023-02-21T22:00:46.394Z,7.90
2023-02-21T22:03:18.537Z,7.90
2023-02-21T22:05:47.350Z,8.10
2023-02-21T22:08:18.923Z,7.90
2023-02-21T22:10:46.113Z,8.00
2023-02-21T22:13:13.864Z,7.90
2023-02-21T22:15:43.743Z,7.60
2023-02-21T22:18:12.392Z,7.70
2023-02-21T22:20:39.528Z,8.00
2023-02-21T22:23:07.459Z,8.00
2023-02-21T22:25:37.320Z,7.60
2023-02-21T22:28:10.295Z,7.50
2023-02-21T22:30:40.858Z,7.40
2023-02-21T22:33:09.114Z,7.50
2023-02-21T22:35:36.376Z,7.30
2023-02-21T22:38:07.936Z,7.50
2023-02-21T22:40:35.852Z,7.50
2023-02-21T22:43:05.883Z,7.40
2023-02-21T22:45:36.983Z,7.50
2023-02-21T22:48:06.797Z,7.60
2023-02-21T22:50:37.213Z,7.60
2023-02-21T22:53:08.036Z,7.30
2023-02-21T22:55:40.297Z,7.20
2023-02-21T22:58:09.717Z,7.20
2023-02-21T23:00:38.119Z,7.10
2023-02-21T23:03:13.317Z,7.20
2023-02-21T23:05:45.575Z,7.20
2023-02-21T23:08:18.076Z,7.30
2023-02-21T23:10:45.638Z,7.50
2023-02-21T23:13:19.655Z,7.50
2023-02-21T23:15:47.575Z,7.50
2023-02-21T23:18:20.966Z,7.40
2023-02-21T23:20:58.162Z,7.50
2023-02-21T23:23:29.362Z,7.50
2023-02-21T23:25:59.391Z,7.40
2023-02-21T23:28:29.046Z,7.20
2023-02-21T23:30:58.370Z,7.10
2023-02-21T23:33:29.348Z,7.30
2023-02-21T23:35:57.568Z,7.20
2023-02-21T23:38:28.586Z,7.20
2023-02-21T23:40:58.014Z,7.20
2023-02-21T23:43:29.711Z,7.30
2023-02-21T23:46:04.237Z,7.50
2023-02-21T23:48:32.810Z,7.50
2023-02-21T23:50:59.991Z,7.40
2023-02-21T23:53:29.272Z,7.30
2023-02-21T23:55:57.958Z,7.40
2023-02-21T23:58:27.642Z,7.40
